sensor_id;sensor_type;location;lat;lon;timestamp;temperature;humidity
11772;DHT22;12556;55.748;13.194;2023-03-17T00:00:11;4.10;99.90
11772;DHT22;12556;55.748;13.194;2023-03-17T00:02:39;4.10;99.90
11772;DHT22;12556;55.748;13.194;2023-03-17T00:05:16;4.10;99.90
11772;DHT22;12556;55.748;13.194;2023-03-17T00:07:44;4.20;99.90
11772;DHT22;12556;55.748;13.194;2023-03-17T00:10:16;4.20;99.90
11772;DHT22;12556;55.748;13.194;2023-03-17T00:12:44;4.20;99.90
11772;DHT22;12556;55.748;13.194;2023-03-17T00:15:12;4.20;99.90
11772;DHT22;12556;55.748;13.194;2023-03-17T00:17:40;4.20;99.90
11772;DHT22;12556;55.748;13.194;2023-03-17T00:20:15;4.20;99.90
11772;DHT22;12556;55.748;13.194;2023-03-17T00:22:44;4.20;99.90
11772;DHT22;12556;55.748;13.194;2023-03-17T00:25:18;4.20;99.90
11772;DHT22;12556;55.748;13.194;2023-03-17T00:27:45;4.20;99.90
11772;DHT22;12556;55.748;13.194;2023-03-17T00:30:13;4.20;99.90
11772;DHT22;12556;55.748;13.194;2023-03-17T00:32:40;4.20;99.90
11772;DHT22;12556;55.748;13.194;2023-03-17T00:35:17;4.20;99.90
11772;DHT22;12556;55.748;13.194;2023-03-17T00:37:45;4.20;99.90
11772;DHT22;12556;55.748;13.194;2023-03-17T00:40:18;4.20;99.90
11772;DHT22;12556;55.748;13.194;2023-03-17T00:42:46;4.20;99.90
11772;DHT22;12556;55.748;13.194;2023-03-17T00:45:13;4.20;99.90
11772;DHT22;12556;55.748;13.194;2023-03-17T00:47:41;4.20;99.90
11772;DHT22;12556;55.748;13.194;2023-03-17T00:50:11;4.20;99.90
11772;DHT22;12556;55.748;13.194;2023-03-17T00:52:41;4.20;99.90
11772;DHT22;12556;55.748;13.194;2023-03-17T00:55:08;4.20;99.90
11772;DHT22;12556;55.748;13.194;2023-03-17T00:57:35;4.20;99.90
11772;DHT22;12556;55.748;13.194;2023-03-17T01:00:04;4.30;99.90
11772;DHT22;12556;55.748;13.194;2023-03-17T01:02:32;4.20;99.90
11772;DHT22;12556;55.748;13.194;2023-03-17T01:04:59;4.20;99.90
11772;DHT22;12556;55.748;13.194;2023-03-17T01:07:26;4.20;99.90
11772;DHT22;12556;55.748;13.194;2023-03-17T01:09:56;4.20;99.90
11772;DHT22;12556;55.748;13.194;2023-03-17T01:12:23;4.30;99.90
11772;DHT22;12556;55.748;13.194;2023-03-17T01:14:51;4.20;99.90
11772;DHT22;12556;55.748;13.194;2023-03-17T01:17:19;4.20;99.90
11772;DHT22;12556;55.748;13.194;2023-03-17T01:19:47;4.20;99.90
11772;DHT22;12556;55.748;13.194;2023-03-17T01:22:13;4.30;99.90
11772;DHT22;12556;55.748;13.194;2023-03-17T01:24:40;4.20;99.90
11772;DHT22;12556;55.748;13.194;2023-03-17T01:27:09;4.30;99.90
11772;DHT22;12556;55.748;13.194;2023-03-17T01:29:37;4.20;99.90
11772;DHT22;12556;55.748;13.194;2023-03-17T01:32:04;4.20;99.90
11772;DHT22;12556;55.748;13.194;2023-03-17T01:34:31;4.20;99.90
11772;DHT22;12556;55.748;13.194;2023-03-17T01:36:58;4.20;99.90
11772;DHT22;12556;55.748;13.194;2023-03-17T01:39:26;4.20;99.90
11772;DHT22;12556;55.748;13.194;2023-03-17T01:41:53;4.20;99.90
11772;DHT22;12556;55.748;13.194;2023-03-17T01:44:23;4.20;99.90
11772;DHT22;12556;55.748;13.194;2023-03-17T01:46:50;4.20;99.90
11772;DHT22;12556;55.748;13.194;2023-03-17T01:49:24;4.20;99.90
11772;DHT22;12556;55.748;13.194;2023-03-17T01:51:57;4.20;99.90
11772;DHT22;12556;55.748;13.194;2023-03-17T01:54:32;4.20;99.90
11772;DHT22;12556;55.748;13.194;2023-03-17T01:57:03;4.20;99.90
11772;DHT22;12556;55.748;13.194;2023-03-17T01:59:36;4.20;99.90
11772;DHT22;12556;55.748;13.194;2023-03-17T02:02:08;4.20;99.90
11772;DHT22;12556;55.748;13.194;2023-03-17T02:04:37;4.20;99.90
11772;DHT22;12556;55.748;13.194;2023-03-17T02:07:04;4.20;99.90
11772;DHT22;12556;55.748;13.194;2023-03-17T02:09:32;4.20;99.90
11772;DHT22;12556;55.748;13.194;2023-03-17T02:12:00;4.20;99.90
11772;DHT22;12556;55.748;13.194;2023-03-17T02:14:28;4.20;99.90
11772;DHT22;12556;55.748;13.194;2023-03-17T02:16:57;4.20;99.90
11772;DHT22;12556;55.748;13.194;2023-03-17T02:19:25;4.20;99.90
11772;DHT22;12556;55.748;13.194;2023-03-17T02:21:54;4.20;99.90
11772;DHT22;12556;55.748;13.194;2023-03-17T02:24:27;4.20;99.90
11772;DHT22;12556;55.748;13.194;2023-03-17T02:26:58;4.20;99.90
11772;DHT22;12556;55.748;13.194;2023-03-17T02:29:26;4.20;99.90
11772;DHT22;12556;55.748;13.194;2023-03-17T02:31:53;4.20;99.90
11772;DHT22;12556;55.748;13.194;2023-03-17T02:34:20;4.30;99.90
11772;DHT22;12556;55.748;13.194;2023-03-17T02:36:47;4.30;99.90
11772;DHT22;12556;55.748;13.194;2023-03-17T02:39:15;4.30;99.90
11772;DHT22;12556;55.748;13.194;2023-03-17T02:41:42;4.30;99.90
11772;DHT22;12556;55.748;13.194;2023-03-17T02:44:09;4.30;99.90
11772;DHT22;12556;55.748;13.194;2023-03-17T02:46:36;4.30;99.90
11772;DHT22;12556;55.748;13.194;2023-03-17T02:49:03;4.30;99.90
11772;DHT22;12556;55.748;13.194;2023-03-17T02:51:31;4.30;99.90
11772;DHT22;12556;55.748;13.194;2023-03-17T02:53:57;4.30;99.90
11772;DHT22;12556;55.748;13.194;2023-03-17T02:56:26;4.30;99.90
11772;DHT22;12556;55.748;13.194;2023-03-17T02:58:53;4.30;99.90
11772;DHT22;12556;55.748;13.194;2023-03-17T03:01:20;4.30;99.90
11772;DHT22;12556;55.748;13.194;2023-03-17T03:03:47;4.30;99.90
11772;DHT22;12556;55.748;13.194;2023-03-17T03:06:14;4.30;99.90
11772;DHT22;12556;55.748;13.194;2023-03-17T03:08:41;4.30;99.90
11772;DHT22;12556;55.748;13.194;2023-03-17T03:11:08;4.30;99.90
11772;DHT22;12556;55.748;13.194;2023-03-17T03:13:36;4.30;99.90
11772;DHT22;12556;55.748;13.194;2023-03-17T03:16:04;4.30;99.90
11772;DHT22;12556;55.748;13.194;2023-03-17T03:18:31;4.30;99.90
11772;DHT22;12556;55.748;13.194;2023-03-17T03:20:58;4.30;99.90
11772;DHT22;12556;55.748;13.194;2023-03-17T03:23:25;4.20;99.90
11772;DHT22;12556;55.748;13.194;2023-03-17T03:25:52;4.30;99.90
11772;DHT22;12556;55.748;13.194;2023-03-17T03:28:19;4.30;99.90
11772;DHT22;12556;55.748;13.194;2023-03-17T03:30:48;4.30;99.90
11772;DHT22;12556;55.748;13.194;2023-03-17T03:33:15;4.20;99.90
11772;DHT22;12556;55.748;13.194;2023-03-17T03:35:42;4.20;99.90
11772;DHT22;12556;55.748;13.194;2023-03-17T03:38:11;4.20;99.90
11772;DHT22;12556;55.748;13.194;2023-03-17T03:40:38;4.20;99.90
11772;DHT22;12556;55.748;13.194;2023-03-17T03:43:05;4.20;99.90
11772;DHT22;12556;55.748;13.194;2023-03-17T03:45:32;4.20;99.90
11772;DHT22;12556;55.748;13.194;2023-03-17T03:48:01;4.20;99.90
11772;DHT22;12556;55.748;13.194;2023-03-17T03:50:28;4.20;99.90
11772;DHT22;12556;55.748;13.194;2023-03-17T03:52:56;4.30;99.90
11772;DHT22;12556;55.748;13.194;2023-03-17T03:55:23;4.20;99.90
11772;DHT22;12556;55.748;13.194;2023-03-17T03:57:50;4.20;99.90
11772;DHT22;12556;55.748;13.194;2023-03-17T04:00:17;4.20;99.90
11772;DHT22;12556;55.748;13.194;2023-03-17T04:02:44;4.30;99.90
11772;DHT22;12556;55.748;13.194;2023-03-17T04:05:13;4.30;99.90
11772;DHT22;12556;55.748;13.194;2023-03-17T04:07:41;4.30;99.90
11772;DHT22;12556;55.748;13.194;2023-03-17T04:10:09;4.30;99.90
11772;DHT22;12556;55.748;13.194;2023-03-17T04:12:36;4.30;99.90
11772;DHT22;12556;55.748;13.194;2023-03-17T04:15:04;4.30;99.90
11772;DHT22;12556;55.748;13.194;2023-03-17T04:17:31;4.30;99.90
11772;DHT22;12556;55.748;13.194;2023-03-17T04:19:58;4.30;99.90
11772;DHT22;12556;55.748;13.194;2023-03-17T04:22:27;4.30;99.90
11772;DHT22;12556;55.748;13.194;2023-03-17T04:24:53;4.30;99.90
11772;DHT22;12556;55.748;13.194;2023-03-17T04:27:21;4.30;99.90
11772;DHT22;12556;55.748;13.194;2023-03-17T04:29:47;4.40;99.90
11772;DHT22;12556;55.748;13.194;2023-03-17T04:32:14;4.40;99.90
11772;DHT22;12556;55.748;13.194;2023-03-17T04:34:41;4.40;99.90
11772;DHT22;12556;55.748;13.194;2023-03-17T04:37:09;4.40;99.90
11772;DHT22;12556;55.748;13.194;2023-03-17T04:39:38;4.40;99.90
11772;DHT22;12556;55.748;13.194;2023-03-17T04:42:05;4.40;99.90
11772;DHT22;12556;55.748;13.194;2023-03-17T04:44:32;4.40;99.90
11772;DHT22;12556;55.748;13.194;2023-03-17T04:46:59;4.40;99.90
11772;DHT22;12556;55.748;13.194;2023-03-17T04:49:26;4.40;99.90
11772;DHT22;12556;55.748;13.194;2023-03-17T04:51:53;4.40;99.90
11772;DHT22;12556;55.748;13.194;2023-03-17T04:54:21;4.50;99.90
11772;DHT22;12556;55.748;13.194;2023-03-17T04:56:49;4.40;99.90
11772;DHT22;12556;55.748;13.194;2023-03-17T04:59:16;4.40;99.90
11772;DHT22;12556;55.748;13.194;2023-03-17T05:01:43;4.40;99.90
11772;DHT22;12556;55.748;13.194;2023-03-17T05:04:10;4.40;99.90
11772;DHT22;12556;55.748;13.194;2023-03-17T05:06:37;4.40;99.90
11772;DHT22;12556;55.748;13.194;2023-03-17T05:09:04;4.40;99.90
11772;DHT22;12556;55.748;13.194;2023-03-17T05:11:31;4.40;99.90
11772;DHT22;12556;55.748;13.194;2023-03-17T05:13:59;4.40;99.90
11772;DHT22;12556;55.748;13.194;2023-03-17T05:16:26;4.40;99.90
11772;DHT22;12556;55.748;13.194;2023-03-17T05:18:53;4.40;99.90
11772;DHT22;12556;55.748;13.194;2023-03-17T05:21:20;4.40;99.90
11772;DHT22;12556;55.748;13.194;2023-03-17T05:23:47;4.40;99.90
11772;DHT22;12556;55.748;13.194;2023-03-17T05:26:14;4.40;99.90
11772;DHT22;12556;55.748;13.194;2023-03-17T05:28:41;4.40;99.90
11772;DHT22;12556;55.748;13.194;2023-03-17T05:31:10;4.40;99.90
11772;DHT22;12556;55.748;13.194;2023-03-17T05:33:37;4.40;99.90
11772;DHT22;12556;55.748;13.194;2023-03-17T05:36:04;4.40;99.90
11772;DHT22;12556;55.748;13.194;2023-03-17T05:38:31;4.40;99.90
11772;DHT22;12556;55.748;13.194;2023-03-17T05:40:58;4.40;99.90
11772;DHT22;12556;55.748;13.194;2023-03-17T05:43:26;4.50;99.90
11772;DHT22;12556;55.748;13.194;2023-03-17T05:45:53;4.50;99.90
11772;DHT22;12556;55.748;13.194;2023-03-17T05:48:21;4.50;99.90
11772;DHT22;12556;55.748;13.194;2023-03-17T05:50:48;4.50;99.90
11772;DHT22;12556;55.748;13.194;2023-03-17T05:53:15;4.50;99.90
11772;DHT22;12556;55.748;13.194;2023-03-17T05:55:43;4.50;99.90
11772;DHT22;12556;55.748;13.194;2023-03-17T05:58:10;4.50;99.90
11772;DHT22;12556;55.748;13.194;2023-03-17T06:00:37;4.50;99.90
11772;DHT22;12556;55.748;13.194;2023-03-17T06:03:05;4.60;99.90
11772;DHT22;12556;55.748;13.194;2023-03-17T06:05:33;4.60;99.90
11772;DHT22;12556;55.748;13.194;2023-03-17T06:08:01;4.60;99.90
11772;DHT22;12556;55.748;13.194;2023-03-17T06:10:29;4.60;99.90
11772;DHT22;12556;55.748;13.194;2023-03-17T06:12:57;4.60;99.90
11772;DHT22;12556;55.748;13.194;2023-03-17T06:15:24;4.60;99.90
11772;DHT22;12556;55.748;13.194;2023-03-17T06:17:52;4.60;99.90
11772;DHT22;12556;55.748;13.194;2023-03-17T06:20:19;4.70;99.90
11772;DHT22;12556;55.748;13.194;2023-03-17T06:22:47;4.70;99.90
11772;DHT22;12556;55.748;13.194;2023-03-17T06:25:14;4.70;99.90
11772;DHT22;12556;55.748;13.194;2023-03-17T06:27:41;4.70;99.90
11772;DHT22;12556;55.748;13.194;2023-03-17T06:30:10;4.70;99.90
11772;DHT22;12556;55.748;13.194;2023-03-17T06:32:37;4.70;99.90
11772;DHT22;12556;55.748;13.194;2023-03-17T06:35:08;4.70;99.90
11772;DHT22;12556;55.748;13.194;2023-03-17T06:37:35;4.70;99.90
11772;DHT22;12556;55.748;13.194;2023-03-17T06:40:05;4.70;99.90
11772;DHT22;12556;55.748;13.194;2023-03-17T06:42:35;4.70;99.90
11772;DHT22;12556;55.748;13.194;2023-03-17T06:45:02;4.70;99.90
11772;DHT22;12556;55.748;13.194;2023-03-17T06:47:29;4.80;99.90
11772;DHT22;12556;55.748;13.194;2023-03-17T06:49:56;4.80;99.90
11772;DHT22;12556;55.748;13.194;2023-03-17T06:52:23;4.70;99.90
11772;DHT22;12556;55.748;13.194;2023-03-17T06:54:51;4.80;99.90
11772;DHT22;12556;55.748;13.194;2023-03-17T06:57:19;4.80;99.90
11772;DHT22;12556;55.748;13.194;2023-03-17T06:59:46;4.80;99.90
11772;DHT22;12556;55.748;13.194;2023-03-17T07:02:13;4.80;99.90
11772;DHT22;12556;55.748;13.194;2023-03-17T07:04:40;4.80;99.90
11772;DHT22;12556;55.748;13.194;2023-03-17T07:07:07;4.80;99.90
11772;DHT22;12556;55.748;13.194;2023-03-17T07:09:34;4.90;99.90
11772;DHT22;12556;55.748;13.194;2023-03-17T07:12:02;4.80;99.90
11772;DHT22;12556;55.748;13.194;2023-03-17T07:14:32;4.90;99.90
11772;DHT22;12556;55.748;13.194;2023-03-17T07:17:00;4.90;99.90
11772;DHT22;12556;55.748;13.194;2023-03-17T07:19:27;4.90;99.90
11772;DHT22;12556;55.748;13.194;2023-03-17T07:21:54;4.90;99.90
11772;DHT22;12556;55.748;13.194;2023-03-17T07:24:21;4.90;99.90
11772;DHT22;12556;55.748;13.194;2023-03-17T07:26:48;4.90;99.90
11772;DHT22;12556;55.748;13.194;2023-03-17T07:29:16;5.00;99.90
11772;DHT22;12556;55.748;13.194;2023-03-17T07:31:44;5.00;99.90
11772;DHT22;12556;55.748;13.194;2023-03-17T07:34:11;5.00;99.90
11772;DHT22;12556;55.748;13.194;2023-03-17T07:36:39;5.00;99.90
11772;DHT22;12556;55.748;13.194;2023-03-17T07:39:06;5.00;99.90
11772;DHT22;12556;55.748;13.194;2023-03-17T07:41:33;5.00;99.90
11772;DHT22;12556;55.748;13.194;2023-03-17T07:44:01;5.00;99.90
11772;DHT22;12556;55.748;13.194;2023-03-17T07:46:29;5.00;99.90
11772;DHT22;12556;55.748;13.194;2023-03-17T07:48:57;5.00;99.90
11772;DHT22;12556;55.748;13.194;2023-03-17T07:51:24;5.00;99.90
11772;DHT22;12556;55.748;13.194;2023-03-17T07:53:53;5.00;99.90
11772;DHT22;12556;55.748;13.194;2023-03-17T07:56:28;5.00;99.90
11772;DHT22;12556;55.748;13.194;2023-03-17T07:58:54;5.00;99.90
11772;DHT22;12556;55.748;13.194;2023-03-17T08:01:22;5.00;99.90
11772;DHT22;12556;55.748;13.194;2023-03-17T08:03:50;5.00;99.90
11772;DHT22;12556;55.748;13.194;2023-03-17T08:06:18;5.10;99.90
11772;DHT22;12556;55.748;13.194;2023-03-17T08:08:46;5.10;99.90
11772;DHT22;12556;55.748;13.194;2023-03-17T08:11:12;5.10;99.90
11772;DHT22;12556;55.748;13.194;2023-03-17T08:13:40;5.10;99.90
11772;DHT22;12556;55.748;13.194;2023-03-17T08:16:06;5.10;99.90
11772;DHT22;12556;55.748;13.194;2023-03-17T08:18:33;5.20;99.90
11772;DHT22;12556;55.748;13.194;2023-03-17T08:21:01;5.20;99.90
11772;DHT22;12556;55.748;13.194;2023-03-17T08:23:29;5.20;99.90
11772;DHT22;12556;55.748;13.194;2023-03-17T08:25:56;5.20;99.90
11772;DHT22;12556;55.748;13.194;2023-03-17T08:28:25;5.20;99.90
11772;DHT22;12556;55.748;13.194;2023-03-17T08:30:52;5.20;99.90
11772;DHT22;12556;55.748;13.194;2023-03-17T08:33:20;5.30;99.90
11772;DHT22;12556;55.748;13.194;2023-03-17T08:35:47;5.30;99.90
11772;DHT22;12556;55.748;13.194;2023-03-17T08:38:14;5.30;99.90
11772;DHT22;12556;55.748;13.194;2023-03-17T08:40:42;5.30;99.90
11772;DHT22;12556;55.748;13.194;2023-03-17T08:43:09;5.40;99.90
11772;DHT22;12556;55.748;13.194;2023-03-17T08:45:37;5.50;99.90
11772;DHT22;12556;55.748;13.194;2023-03-17T08:48:05;5.50;99.90
11772;DHT22;12556;55.748;13.194;2023-03-17T08:50:32;5.60;99.90
11772;DHT22;12556;55.748;13.194;2023-03-17T08:53:00;5.70;99.90
11772;DHT22;12556;55.748;13.194;2023-03-17T08:55:27;5.70;99.90
11772;DHT22;12556;55.748;13.194;2023-03-17T08:57:55;5.80;99.90
11772;DHT22;12556;55.748;13.194;2023-03-17T09:00:22;5.80;99.90
11772;DHT22;12556;55.748;13.194;2023-03-17T09:02:49;5.90;99.90
11772;DHT22;12556;55.748;13.194;2023-03-17T09:05:17;5.90;99.90
11772;DHT22;12556;55.748;13.194;2023-03-17T09:07:45;6.00;99.90
11772;DHT22;12556;55.748;13.194;2023-03-17T09:10:13;6.00;99.90
11772;DHT22;12556;55.748;13.194;2023-03-17T09:12:41;6.10;99.90
11772;DHT22;12556;55.748;13.194;2023-03-17T09:15:10;6.20;99.90
11772;DHT22;12556;55.748;13.194;2023-03-17T09:17:37;6.20;99.90
11772;DHT22;12556;55.748;13.194;2023-03-17T09:20:05;6.20;99.90
11772;DHT22;12556;55.748;13.194;2023-03-17T09:22:32;6.30;99.90
11772;DHT22;12556;55.748;13.194;2023-03-17T09:24:59;6.40;99.90
11772;DHT22;12556;55.748;13.194;2023-03-17T09:27:26;6.40;99.90
11772;DHT22;12556;55.748;13.194;2023-03-17T09:29:53;6.50;99.90
11772;DHT22;12556;55.748;13.194;2023-03-17T09:32:22;6.50;99.90
11772;DHT22;12556;55.748;13.194;2023-03-17T09:34:49;6.60;99.90
11772;DHT22;12556;55.748;13.194;2023-03-17T09:37:16;6.70;99.90
11772;DHT22;12556;55.748;13.194;2023-03-17T09:39:42;6.70;99.90
11772;DHT22;12556;55.748;13.194;2023-03-17T09:42:32;6.80;99.90
11772;DHT22;12556;55.748;13.194;2023-03-17T09:45:10;6.80;99.90
11772;DHT22;12556;55.748;13.194;2023-03-17T09:47:52;6.90;99.90
11772;DHT22;12556;55.748;13.194;2023-03-17T09:50:23;7.00;99.90
11772;DHT22;12556;55.748;13.194;2023-03-17T09:52:54;7.00;99.90
11772;DHT22;12556;55.748;13.194;2023-03-17T09:55:25;7.10;99.90
11772;DHT22;12556;55.748;13.194;2023-03-17T09:57:54;7.10;99.90
11772;DHT22;12556;55.748;13.194;2023-03-17T10:00:24;7.20;99.90
11772;DHT22;12556;55.748;13.194;2023-03-17T10:02:56;7.20;99.90
11772;DHT22;12556;55.748;13.194;2023-03-17T10:05:24;7.30;99.90
11772;DHT22;12556;55.748;13.194;2023-03-17T10:07:59;7.40;99.90
11772;DHT22;12556;55.748;13.194;2023-03-17T10:10:36;7.50;99.90
11772;DHT22;12556;55.748;13.194;2023-03-17T10:13:11;7.60;99.90
11772;DHT22;12556;55.748;13.194;2023-03-17T10:15:46;7.60;99.90
11772;DHT22;12556;55.748;13.194;2023-03-17T10:18:17;7.70;99.90
11772;DHT22;12556;55.748;13.194;2023-03-17T10:20:49;7.90;99.90
11772;DHT22;12556;55.748;13.194;2023-03-17T10:23:20;8.00;99.90
11772;DHT22;12556;55.748;13.194;2023-03-17T10:25:50;8.20;99.90
11772;DHT22;12556;55.748;13.194;2023-03-17T10:28:24;8.30;99.90
11772;DHT22;12556;55.748;13.194;2023-03-17T10:30:52;8.40;99.90
11772;DHT22;12556;55.748;13.194;2023-03-17T10:33:20;8.30;99.90
11772;DHT22;12556;55.748;13.194;2023-03-17T10:35:47;8.40;99.90
11772;DHT22;12556;55.748;13.194;2023-03-17T10:38:16;8.40;99.90
11772;DHT22;12556;55.748;13.194;2023-03-17T10:40:45;8.40;99.90
11772;DHT22;12556;55.748;13.194;2023-03-17T10:43:20;8.40;99.90
11772;DHT22;12556;55.748;13.194;2023-03-17T10:45:57;8.50;99.90
11772;DHT22;12556;55.748;13.194;2023-03-17T10:48:26;8.60;99.90
11772;DHT22;12556;55.748;13.194;2023-03-17T10:50:56;8.70;99.90
11772;DHT22;12556;55.748;13.194;2023-03-17T10:53:26;8.70;99.90
11772;DHT22;12556;55.748;13.194;2023-03-17T10:55:57;8.80;99.90
11772;DHT22;12556;55.748;13.194;2023-03-17T10:58:35;8.80;99.90
11772;DHT22;12556;55.748;13.194;2023-03-17T11:01:06;9.00;99.90
11772;DHT22;12556;55.748;13.194;2023-03-17T11:03:38;9.10;99.90
11772;DHT22;12556;55.748;13.194;2023-03-17T11:06:07;9.20;99.90
11772;DHT22;12556;55.748;13.194;2023-03-17T11:08:38;9.20;99.90
11772;DHT22;12556;55.748;13.194;2023-03-17T11:11:09;9.30;99.90
11772;DHT22;12556;55.748;13.194;2023-03-17T11:13:46;9.40;99.90
11772;DHT22;12556;55.748;13.194;2023-03-17T11:16:19;9.50;99.90
11772;DHT22;12556;55.748;13.194;2023-03-17T11:18:51;9.40;99.90
11772;DHT22;12556;55.748;13.194;2023-03-17T11:21:20;9.40;99.90
11772;DHT22;12556;55.748;13.194;2023-03-17T11:23:51;9.40;99.90
11772;DHT22;12556;55.748;13.194;2023-03-17T11:26:36;9.60;99.90
11772;DHT22;12556;55.748;13.194;2023-03-17T11:29:25;9.70;99.90
11772;DHT22;12556;55.748;13.194;2023-03-17T11:31:58;9.70;99.90
11772;DHT22;12556;55.748;13.194;2023-03-17T11:34:38;9.70;99.90
11772;DHT22;12556;55.748;13.194;2023-03-17T11:37:17;9.70;99.90
11772;DHT22;12556;55.748;13.194;2023-03-17T11:39:51;9.70;99.90
11772;DHT22;12556;55.748;13.194;2023-03-17T11:42:24;9.80;99.90
11772;DHT22;12556;55.748;13.194;2023-03-17T11:48:06;10.00;99.80
11772;DHT22;12556;55.748;13.194;2023-03-17T11:50:40;10.10;99.50
11772;DHT22;12556;55.748;13.194;2023-03-17T11:53:41;10.00;99.30
11772;DHT22;12556;55.748;13.194;2023-03-17T11:56:14;9.90;99.70
11772;DHT22;12556;55.748;13.194;2023-03-17T11:58:45;9.80;99.80
11772;DHT22;12556;55.748;13.194;2023-03-17T12:01:16;9.70;99.50
11772;DHT22;12556;55.748;13.194;2023-03-17T12:03:48;9.70;99.60
11772;DHT22;12556;55.748;13.194;2023-03-17T12:06:25;9.60;99.70
11772;DHT22;12556;55.748;13.194;2023-03-17T12:08:56;9.60;99.80
11772;DHT22;12556;55.748;13.194;2023-03-17T12:11:27;9.60;99.80
11772;DHT22;12556;55.748;13.194;2023-03-17T12:13:59;9.60;99.70
11772;DHT22;12556;55.748;13.194;2023-03-17T12:16:32;9.50;99.60
11772;DHT22;12556;55.748;13.194;2023-03-17T12:19:06;9.50;99.70
11772;DHT22;12556;55.748;13.194;2023-03-17T12:21:43;9.40;99.60
11772;DHT22;12556;55.748;13.194;2023-03-17T12:24:15;9.50;99.70
11772;DHT22;12556;55.748;13.194;2023-03-17T12:26:50;9.40;99.80
11772;DHT22;12556;55.748;13.194;2023-03-17T12:29:24;9.40;99.70
11772;DHT22;12556;55.748;13.194;2023-03-17T12:31:58;9.40;99.60
11772;DHT22;12556;55.748;13.194;2023-03-17T12:34:32;9.30;99.50
11772;DHT22;12556;55.748;13.194;2023-03-17T12:37:03;9.30;99.60
11772;DHT22;12556;55.748;13.194;2023-03-17T12:39:32;9.30;99.60
11772;DHT22;12556;55.748;13.194;2023-03-17T12:42:12;9.30;99.70
11772;DHT22;12556;55.748;13.194;2023-03-17T12:45:15;9.40;99.70
11772;DHT22;12556;55.748;13.194;2023-03-17T12:47:57;9.50;99.70
11772;DHT22;12556;55.748;13.194;2023-03-17T12:50:46;9.50;99.50
11772;DHT22;12556;55.748;13.194;2023-03-17T12:53:23;9.50;99.40
11772;DHT22;12556;55.748;13.194;2023-03-17T12:55:55;9.40;99.40
11772;DHT22;12556;55.748;13.194;2023-03-17T12:58:30;9.30;99.50
11772;DHT22;12556;55.748;13.194;2023-03-17T13:01:07;9.50;99.70
11772;DHT22;12556;55.748;13.194;2023-03-17T13:03:36;9.50;99.50
11772;DHT22;12556;55.748;13.194;2023-03-17T13:06:16;9.40;99.40
11772;DHT22;12556;55.748;13.194;2023-03-17T13:08:48;9.40;99.50
11772;DHT22;12556;55.748;13.194;2023-03-17T13:11:19;9.50;99.60
11772;DHT22;12556;55.748;13.194;2023-03-17T13:14:05;9.50;99.40
11772;DHT22;12556;55.748;13.194;2023-03-17T13:16:36;9.70;99.50
11772;DHT22;12556;55.748;13.194;2023-03-17T13:19:21;9.70;99.40
11772;DHT22;12556;55.748;13.194;2023-03-17T13:21:50;9.70;99.30
11772;DHT22;12556;55.748;13.194;2023-03-17T13:24:41;9.80;99.40
11772;DHT22;12556;55.748;13.194;2023-03-17T13:27:12;9.90;99.30
11772;DHT22;12556;55.748;13.194;2023-03-17T13:29:48;10.00;98.90
11772;DHT22;12556;55.748;13.194;2023-03-17T13:32:35;10.00;98.80
11772;DHT22;12556;55.748;13.194;2023-03-17T13:35:19;10.10;98.80
11772;DHT22;12556;55.748;13.194;2023-03-17T13:40:50;10.10;98.80
11772;DHT22;12556;55.748;13.194;2023-03-17T13:43:37;10.00;98.60
11772;DHT22;12556;55.748;13.194;2023-03-17T13:46:24;10.00;98.50
11772;DHT22;12556;55.748;13.194;2023-03-17T13:48:54;9.90;98.90
11772;DHT22;12556;55.748;13.194;2023-03-17T13:51:23;9.90;98.90
11772;DHT22;12556;55.748;13.194;2023-03-17T13:53:53;9.80;98.90
11772;DHT22;12556;55.748;13.194;2023-03-17T13:56:24;9.80;98.90
11772;DHT22;12556;55.748;13.194;2023-03-17T13:59:03;9.80;99.00
11772;DHT22;12556;55.748;13.194;2023-03-17T14:01:34;9.90;99.00
11772;DHT22;12556;55.748;13.194;2023-03-17T14:04:11;9.90;99.00
11772;DHT22;12556;55.748;13.194;2023-03-17T14:06:38;9.90;98.90
11772;DHT22;12556;55.748;13.194;2023-03-17T14:09:08;9.90;98.90
11772;DHT22;12556;55.748;13.194;2023-03-17T14:11:39;9.90;98.80
11772;DHT22;12556;55.748;13.194;2023-03-17T14:14:13;9.90;98.80
11772;DHT22;12556;55.748;13.194;2023-03-17T14:16:44;9.80;98.70
11772;DHT22;12556;55.748;13.194;2023-03-17T14:19:18;9.80;98.90
11772;DHT22;12556;55.748;13.194;2023-03-17T14:21:46;9.80;98.90
11772;DHT22;12556;55.748;13.194;2023-03-17T14:24:19;9.70;98.90
11772;DHT22;12556;55.748;13.194;2023-03-17T14:26:48;9.70;98.80
11772;DHT22;12556;55.748;13.194;2023-03-17T14:29:17;9.60;98.60
11772;DHT22;12556;55.748;13.194;2023-03-17T14:31:51;9.50;98.70
11772;DHT22;12556;55.748;13.194;2023-03-17T14:34:24;9.50;98.80
11772;DHT22;12556;55.748;13.194;2023-03-17T14:36:51;9.40;98.80
11772;DHT22;12556;55.748;13.194;2023-03-17T14:39:23;9.30;98.80
11772;DHT22;12556;55.748;13.194;2023-03-17T14:41:59;9.30;98.90
11772;DHT22;12556;55.748;13.194;2023-03-17T14:44:28;9.30;99.00
11772;DHT22;12556;55.748;13.194;2023-03-17T14:47:01;9.30;99.00
11772;DHT22;12556;55.748;13.194;2023-03-17T14:49:29;9.30;99.10
11772;DHT22;12556;55.748;13.194;2023-03-17T14:51:58;9.20;99.10
11772;DHT22;12556;55.748;13.194;2023-03-17T14:54:29;9.20;99.20
11772;DHT22;12556;55.748;13.194;2023-03-17T14:57:01;9.10;99.20
11772;DHT22;12556;55.748;13.194;2023-03-17T14:59:33;9.10;99.20
11772;DHT22;12556;55.748;13.194;2023-03-17T15:02:01;9.00;99.30
11772;DHT22;12556;55.748;13.194;2023-03-17T15:04:30;8.90;99.30
11772;DHT22;12556;55.748;13.194;2023-03-17T15:06:59;8.90;99.50
11772;DHT22;12556;55.748;13.194;2023-03-17T15:09:28;8.80;99.60
11772;DHT22;12556;55.748;13.194;2023-03-17T15:12:03;8.80;99.60
11772;DHT22;12556;55.748;13.194;2023-03-17T15:14:33;8.80;99.80
11772;DHT22;12556;55.748;13.194;2023-03-17T15:17:01;8.70;99.90
11772;DHT22;12556;55.748;13.194;2023-03-17T15:19:35;8.70;99.80
11772;DHT22;12556;55.748;13.194;2023-03-17T15:22:17;8.70;99.90
11772;DHT22;12556;55.748;13.194;2023-03-17T15:24:52;8.70;99.90
11772;DHT22;12556;55.748;13.194;2023-03-17T15:27:25;8.70;99.90
11772;DHT22;12556;55.748;13.194;2023-03-17T15:29:52;8.70;99.90
11772;DHT22;12556;55.748;13.194;2023-03-17T15:32:21;8.60;99.90
11772;DHT22;12556;55.748;13.194;2023-03-17T15:34:50;8.60;99.90
11772;DHT22;12556;55.748;13.194;2023-03-17T15:37:19;8.50;99.90
11772;DHT22;12556;55.748;13.194;2023-03-17T15:39:46;8.50;99.90
11772;DHT22;12556;55.748;13.194;2023-03-17T15:42:14;8.50;99.90
11772;DHT22;12556;55.748;13.194;2023-03-17T15:44:43;8.50;99.90
11772;DHT22;12556;55.748;13.194;2023-03-17T15:47:12;8.50;99.90
11772;DHT22;12556;55.748;13.194;2023-03-17T15:49:40;8.50;99.90
11772;DHT22;12556;55.748;13.194;2023-03-17T15:52:13;8.50;99.90